createdAt,value
2018-08-13T00:01:37.217Z,20.84
2018-08-13T00:04:06.098Z,20.72
2018-08-13T00:06:34.971Z,20.65
2018-08-13T00:09:05.091Z,20.91
2018-08-13T00:11:34.109Z,20.74
2018-08-13T00:14:02.947Z,20.77
2018-08-13T00:16:31.881Z,20.65
2018-08-13T00:19:00.716Z,20.68
2018-08-13T00:21:29.598Z,20.56
2018-08-13T00:23:58.504Z,20.72
2018-08-13T00:26:27.408Z,20.62
2018-08-13T00:28:56.269Z,20.67
2018-08-13T00:31:25.185Z,20.65
2018-08-13T00:33:54.180Z,20.71
2018-08-13T00:36:23.016Z,20.71
2018-08-13T00:38:51.921Z,20.75
2018-08-13T00:41:20.808Z,20.66
2018-08-13T00:43:49.631Z,20.86
2018-08-13T00:46:18.560Z,20.70
2018-08-13T00:48:47.529Z,20.61
2018-08-13T00:51:16.594Z,20.61
2018-08-13T00:53:45.560Z,20.45
2018-08-13T00:56:14.411Z,20.62
2018-08-13T00:58:44.998Z,20.46
2018-08-13T01:01:13.966Z,20.24
2018-08-13T01:03:42.792Z,20.21
2018-08-13T01:06:11.718Z,20.30
2018-08-13T01:16:36.851Z,19.86
2018-08-13T01:19:06.426Z,19.80
2018-08-13T01:21:35.302Z,19.90
2018-08-13T01:24:04.183Z,19.90
2018-08-13T01:26:33.247Z,19.93
2018-08-13T01:29:02.108Z,20.00
2018-08-13T01:31:31.009Z,19.91
2018-08-13T01:34:00.033Z,20.10
2018-08-13T01:36:28.987Z,20.02
2018-08-13T01:38:57.969Z,19.96
2018-08-13T01:41:26.782Z,19.89
2018-08-13T01:43:55.681Z,19.95
2018-08-13T01:46:24.641Z,19.86
2018-08-13T01:48:53.476Z,19.74
2018-08-13T01:51:22.625Z,19.89
2018-08-13T01:53:51.525Z,19.95
2018-08-13T01:56:20.507Z,19.87
2018-08-13T01:58:49.433Z,19.90
2018-08-13T02:01:18.419Z,19.72
2018-08-13T02:03:47.308Z,19.66
2018-08-13T02:06:16.229Z,19.83
2018-08-13T02:08:45.097Z,19.66
2018-08-13T02:11:13.955Z,19.71
2018-08-13T02:13:42.930Z,19.52
2018-08-13T02:16:11.843Z,19.43
2018-08-13T02:18:40.889Z,19.44
2018-08-13T02:21:09.827Z,19.32
2018-08-13T02:23:38.677Z,19.46
2018-08-13T02:26:07.624Z,19.45
2018-08-13T02:28:36.609Z,19.38
2018-08-13T02:31:05.556Z,19.37
2018-08-13T02:33:34.522Z,19.54
2018-08-13T02:36:03.451Z,19.39
2018-08-13T02:38:32.387Z,19.23
2018-08-13T02:41:01.305Z,19.51
2018-08-13T02:43:30.186Z,19.43
2018-08-13T02:45:59.030Z,19.22
2018-08-13T02:48:27.913Z,19.26
2018-08-13T02:50:56.865Z,19.26
2018-08-13T02:53:25.805Z,19.20
2018-08-13T02:55:54.630Z,19.23
2018-08-13T02:58:23.567Z,19.36
2018-08-13T03:00:52.500Z,19.22
2018-08-13T03:03:21.344Z,19.17
2018-08-13T03:05:50.261Z,19.19
2018-08-13T03:08:19.172Z,19.05
2018-08-13T03:10:48.013Z,19.00
2018-08-13T03:13:16.848Z,18.95
2018-08-13T03:15:45.862Z,19.33
2018-08-13T03:18:14.696Z,19.10
2018-08-13T03:20:50.331Z,18.96
2018-08-13T03:23:19.274Z,18.93
2018-08-13T03:25:48.715Z,18.81
2018-08-13T03:28:17.655Z,18.82
2018-08-13T03:30:46.545Z,18.86
2018-08-13T03:33:15.513Z,18.75
2018-08-13T03:35:44.421Z,18.89
2018-08-13T03:38:13.277Z,18.79
2018-08-13T03:40:42.156Z,18.78
2018-08-13T03:43:11.094Z,18.70
2018-08-13T03:45:39.936Z,18.65
2018-08-13T03:48:08.843Z,18.63
2018-08-13T03:50:38.627Z,18.69
2018-08-13T03:53:07.673Z,18.64
2018-08-13T03:55:36.609Z,18.75
2018-08-13T03:58:05.541Z,18.69
2018-08-13T04:00:34.389Z,18.71
2018-08-13T04:03:03.345Z,18.75
2018-08-13T04:05:32.318Z,18.96
2018-08-13T04:08:01.135Z,18.86
2018-08-13T04:10:30.224Z,18.90
2018-08-13T04:12:59.425Z,18.82
2018-08-13T04:15:28.207Z,18.75
2018-08-13T04:17:57.071Z,18.65
2018-08-13T04:20:25.981Z,18.76
2018-08-13T04:22:54.878Z,18.81
2018-08-13T04:25:23.784Z,18.77
2018-08-13T04:27:52.728Z,18.83
2018-08-13T04:30:21.697Z,18.89
2018-08-13T04:32:50.717Z,18.88
2018-08-13T04:35:19.507Z,18.82
2018-08-13T04:37:48.416Z,18.60
2018-08-13T04:40:18.405Z,18.40
2018-08-13T04:42:48.084Z,18.59
2018-08-13T04:45:16.988Z,18.71
2018-08-13T04:47:51.858Z,18.81
2018-08-13T04:50:20.821Z,18.81
2018-08-13T04:52:49.881Z,18.97
2018-08-13T04:55:19.677Z,19.22
2018-08-13T04:57:48.713Z,19.35
2018-08-13T05:00:17.631Z,19.21
2018-08-13T05:02:46.580Z,19.33
2018-08-13T05:05:15.539Z,19.17
2018-08-13T05:07:44.606Z,19.07
2018-08-13T05:10:13.606Z,19.12
2018-08-13T05:12:42.655Z,19.22
2018-08-13T05:15:12.024Z,19.19
2018-08-13T05:17:40.960Z,19.19
2018-08-13T05:20:10.320Z,19.21
2018-08-13T05:22:39.343Z,19.22
2018-08-13T05:25:09.767Z,19.27
2018-08-13T05:27:38.928Z,19.30
2018-08-13T05:30:09.280Z,19.42
2018-08-13T05:32:38.303Z,19.29
2018-08-13T05:35:07.727Z,19.32
2018-08-13T05:37:36.924Z,19.46
2018-08-13T05:40:06.920Z,19.40
2018-08-13T05:42:35.819Z,19.39
2018-08-13T05:45:05.927Z,19.40
2018-08-13T05:47:34.892Z,19.43
2018-08-13T05:50:04.298Z,19.58
2018-08-13T05:52:33.101Z,19.55
2018-08-13T05:55:02.458Z,19.44
2018-08-13T05:57:31.422Z,19.59
2018-08-13T06:00:15.448Z,19.45
2018-08-13T06:02:44.325Z,19.53
2018-08-13T06:05:13.837Z,19.59
2018-08-13T06:07:43.219Z,19.73
2018-08-13T06:10:12.793Z,19.78
2018-08-13T06:12:42.175Z,19.80
2018-08-13T06:15:12.694Z,19.92
2018-08-13T06:17:41.550Z,19.92
2018-08-13T06:20:12.090Z,19.89
2018-08-13T06:22:42.315Z,19.98
2018-08-13T06:25:11.977Z,19.92
2018-08-13T06:27:40.831Z,20.02
2018-08-13T06:30:12.929Z,20.08
2018-08-13T06:32:42.242Z,20.17
2018-08-13T06:35:12.060Z,20.05
2018-08-13T06:37:41.623Z,20.14
2018-08-13T06:40:10.661Z,20.26
2018-08-13T06:42:39.982Z,20.25
2018-08-13T06:45:10.215Z,20.20
2018-08-13T06:47:40.295Z,20.28
2018-08-13T06:50:11.215Z,20.28
2018-08-13T06:52:40.203Z,20.34
2018-08-13T06:55:09.341Z,20.36
2018-08-13T06:57:38.589Z,20.41
2018-08-13T07:00:09.874Z,20.44
2018-08-13T07:02:38.942Z,20.50
2018-08-13T07:05:09.395Z,20.61
2018-08-13T07:07:39.009Z,20.74
2018-08-13T07:10:15.155Z,20.70
2018-08-13T07:12:45.919Z,20.76
2018-08-13T07:15:15.637Z,20.88
2018-08-13T07:17:44.633Z,20.94
2018-08-13T07:20:15.040Z,20.92
2018-08-13T07:22:44.245Z,20.90
2018-08-13T07:25:13.206Z,20.99
2018-08-13T07:27:42.596Z,21.02
2018-08-13T07:30:13.741Z,21.09
2018-08-13T07:32:43.378Z,21.21
2018-08-13T07:35:12.286Z,21.34
2018-08-13T07:37:41.547Z,21.40
2018-08-13T07:40:14.551Z,21.54
2018-08-13T07:42:43.760Z,21.61
2018-08-13T07:45:12.670Z,21.58
2018-08-13T07:47:41.766Z,21.67
2018-08-13T07:50:12.405Z,21.80
2018-08-13T07:52:41.320Z,21.88
2018-08-13T07:55:10.766Z,22.01
2018-08-13T07:57:39.997Z,21.99
2018-08-13T08:00:11.149Z,22.13
2018-08-13T08:02:40.161Z,22.13
2018-08-13T08:05:09.070Z,22.10
2018-08-13T08:07:38.017Z,22.28
2018-08-13T08:10:09.242Z,22.39
2018-08-13T08:12:38.254Z,22.54
2018-08-13T08:15:12.402Z,22.66
2018-08-13T08:17:41.477Z,22.64
2018-08-13T08:20:10.400Z,22.76
2018-08-13T08:22:39.747Z,23.05
2018-08-13T08:25:11.191Z,23.18
2018-08-13T08:27:40.447Z,23.32
2018-08-13T08:30:10.659Z,23.15
2018-08-13T08:32:39.841Z,23.50
2018-08-13T08:35:11.985Z,23.09
2018-08-13T08:37:41.004Z,23.75
2018-08-13T08:40:11.950Z,23.38
2018-08-13T08:42:40.884Z,23.34
2018-08-13T08:45:13.666Z,23.52
2018-08-13T08:47:43.003Z,23.79
2018-08-13T08:50:12.142Z,24.06
2018-08-13T08:52:41.019Z,24.22
2018-08-13T08:55:10.052Z,24.46
2018-08-13T08:57:38.941Z,24.35
2018-08-13T09:00:13.049Z,24.78
2018-08-13T09:02:41.988Z,24.67
2018-08-13T09:05:10.887Z,24.48
2018-08-13T09:07:40.584Z,24.33
2018-08-13T09:10:09.722Z,24.38
2018-08-13T09:12:39.017Z,24.76
2018-08-13T09:15:09.675Z,25.27
2018-08-13T09:17:49.988Z,25.66
2018-08-13T09:20:30.360Z,25.70
2018-08-13T09:23:10.993Z,25.54
2018-08-13T09:25:51.225Z,25.21
2018-08-13T09:28:31.629Z,25.19
2018-08-13T09:31:12.025Z,25.27
2018-08-13T09:33:52.248Z,25.51
2018-08-13T09:36:21.136Z,25.62
2018-08-13T09:38:51.064Z,25.51
2018-08-13T09:41:20.091Z,25.64
2018-08-13T09:43:49.015Z,25.80
2018-08-13T09:46:18.483Z,25.65
2018-08-13T09:48:47.386Z,26.06
2018-08-13T09:51:16.379Z,25.81
2018-08-13T09:53:45.276Z,25.64
2018-08-13T09:56:14.197Z,25.79
2018-08-13T09:58:43.173Z,26.02
2018-08-13T10:01:13.195Z,25.96
2018-08-13T10:03:43.052Z,26.32
2018-08-13T10:06:11.980Z,25.97
2018-08-13T10:08:40.907Z,25.91
2018-08-13T10:11:09.823Z,26.32
2018-08-13T10:13:45.490Z,26.44
2018-08-13T10:16:14.456Z,26.27
2018-08-13T10:18:43.314Z,26.23
2018-08-13T10:21:12.343Z,26.20
2018-08-13T10:23:41.277Z,26.57
2018-08-13T10:26:10.118Z,26.58
2018-08-13T10:28:39.069Z,26.77
2018-08-13T10:31:08.131Z,26.56
2018-08-13T10:33:37.045Z,26.62
2018-08-13T10:36:05.982Z,27.43
2018-08-13T10:38:34.814Z,27.53
2018-08-13T10:41:03.912Z,27.46
2018-08-13T10:43:33.043Z,27.73
2018-08-13T10:46:01.923Z,27.92
2018-08-13T10:48:31.139Z,27.65
2018-08-13T10:51:00.054Z,27.78
2018-08-13T10:53:28.891Z,28.16
2018-08-13T10:55:58.479Z,27.84
2018-08-13T10:58:27.556Z,27.33
2018-08-13T11:00:57.025Z,27.56
2018-08-13T11:03:25.914Z,27.68
2018-08-13T11:05:55.084Z,27.87
2018-08-13T11:08:23.936Z,27.83
2018-08-13T11:10:52.834Z,27.89
2018-08-13T11:13:21.785Z,28.08
2018-08-13T11:15:50.638Z,28.25
2018-08-13T11:18:19.496Z,28.15
2018-08-13T11:20:48.452Z,28.18
2018-08-13T11:23:17.309Z,28.26
2018-08-13T11:25:46.161Z,27.97
2018-08-13T11:28:15.392Z,27.99
2018-08-13T11:30:44.334Z,27.91
2018-08-13T11:33:13.397Z,27.98
2018-08-13T11:35:44.196Z,27.80
2018-08-13T11:38:13.093Z,27.77
2018-08-13T11:40:42.023Z,27.73
2018-08-13T11:43:12.223Z,27.73
2018-08-13T11:45:41.651Z,27.71
2018-08-13T11:48:12.513Z,27.58
2018-08-13T11:50:42.825Z,27.45
2018-08-13T11:53:11.849Z,27.42
2018-08-13T11:55:43.143Z,27.09
2018-08-13T11:58:12.910Z,26.87
2018-08-13T12:00:41.896Z,26.71
2018-08-13T12:03:12.935Z,26.51
2018-08-13T12:05:41.849Z,26.48
2018-08-13T12:08:10.764Z,26.32
2018-08-13T12:10:39.727Z,26.24
2018-08-13T12:13:11.565Z,26.25
2018-08-13T12:15:40.512Z,26.18
2018-08-13T12:18:09.358Z,26.19
2018-08-13T12:20:42.558Z,26.14
2018-08-13T12:23:11.538Z,26.19
2018-08-13T12:25:40.397Z,26.12
2018-08-13T12:28:09.948Z,26.12
2018-08-13T12:30:38.789Z,26.35
2018-08-13T12:33:07.730Z,26.37
2018-08-13T12:35:36.713Z,26.36
2018-08-13T12:38:05.717Z,26.42
2018-08-13T12:40:34.560Z,26.58
2018-08-13T12:43:03.561Z,26.57
2018-08-13T12:45:32.422Z,26.58
2018-08-13T12:48:01.290Z,26.53
2018-08-13T12:50:30.466Z,26.39
2018-08-13T12:52:59.461Z,26.44
2018-08-13T12:55:28.417Z,26.32
2018-08-13T12:57:57.454Z,26.27
2018-08-13T13:00:26.385Z,26.40
2018-08-13T13:02:55.338Z,26.54
2018-08-13T13:05:24.360Z,26.51
2018-08-13T13:07:53.239Z,26.64
2018-08-13T13:10:22.231Z,26.51
2018-08-13T13:12:51.295Z,26.44
2018-08-13T13:15:21.454Z,26.48
2018-08-13T13:17:51.061Z,26.41
2018-08-13T13:20:21.362Z,26.26
2018-08-13T13:22:50.737Z,26.00
2018-08-13T13:25:19.905Z,25.99
2018-08-13T13:27:48.840Z,25.95
2018-08-13T13:30:18.073Z,25.86
2018-08-13T13:32:46.967Z,25.74
2018-08-13T13:35:17.139Z,25.74
2018-08-13T13:37:46.075Z,25.51
2018-08-13T13:40:16.044Z,25.39
2018-08-13T13:42:45.147Z,25.23
2018-08-13T13:45:14.649Z,25.21
2018-08-13T13:47:43.645Z,25.17
2018-08-13T13:50:14.715Z,24.83
2018-08-13T13:52:43.887Z,24.86
2018-08-13T13:55:12.944Z,25.02
2018-08-13T13:57:41.792Z,24.96
2018-08-13T14:00:16.228Z,25.08
2018-08-13T14:02:46.029Z,25.33
2018-08-13T14:05:15.068Z,25.33
2018-08-13T14:07:44.159Z,25.23
2018-08-13T14:10:18.386Z,25.20
2018-08-13T14:12:47.328Z,25.33
2018-08-13T14:15:17.767Z,25.27
2018-08-13T14:17:48.905Z,25.34
2018-08-13T14:20:17.885Z,25.31
2018-08-13T14:22:46.779Z,24.93
2018-08-13T14:25:15.981Z,25.24
2018-08-13T14:27:44.821Z,25.30
2018-08-13T14:30:18.553Z,25.38
2018-08-13T14:32:48.017Z,25.37
2018-08-13T14:35:17.692Z,25.51
2018-08-13T14:37:46.711Z,25.49
2018-08-13T14:40:15.553Z,25.54
2018-08-13T14:42:44.930Z,25.34
2018-08-13T14:45:15.167Z,25.45
2018-08-13T14:47:45.363Z,25.31
2018-08-13T14:50:14.453Z,25.34
2018-08-13T14:52:44.760Z,25.31
2018-08-13T14:55:16.789Z,25.42
2018-08-13T14:57:45.808Z,25.38
2018-08-13T15:00:32.792Z,25.27
2018-08-13T15:03:01.862Z,25.48
2018-08-13T15:05:30.749Z,25.35
2018-08-13T15:07:59.605Z,25.34
2018-08-13T15:10:28.533Z,25.28
2018-08-13T15:12:57.548Z,25.08
2018-08-13T15:15:26.303Z,25.20
2018-08-13T15:17:55.336Z,25.27
2018-08-13T15:20:27.941Z,25.26
2018-08-13T15:22:56.824Z,25.35
2018-08-13T15:25:26.037Z,25.33
2018-08-13T15:27:55.012Z,25.36
2018-08-13T15:30:24.436Z,25.40
2018-08-13T15:32:54.043Z,25.58
2018-08-13T15:35:23.094Z,25.29
2018-08-13T15:37:52.292Z,25.40
2018-08-13T15:40:21.176Z,25.40
2018-08-13T15:42:50.109Z,25.37
2018-08-13T15:45:21.416Z,25.42
2018-08-13T15:47:52.644Z,25.23
2018-08-13T15:50:22.567Z,25.21
2018-08-13T15:52:51.733Z,25.12
2018-08-13T15:55:20.571Z,25.14
2018-08-13T15:57:49.581Z,25.12
2018-08-13T16:00:20.851Z,25.27
2018-08-13T16:02:50.131Z,25.34
2018-08-13T16:05:19.496Z,25.70
2018-08-13T16:07:48.692Z,25.94
2018-08-13T16:10:18.654Z,26.22
2018-08-13T16:12:48.403Z,26.36
2018-08-13T16:15:17.323Z,26.12
2018-08-13T16:17:46.209Z,25.81
2018-08-13T16:20:17.172Z,26.09
2018-08-13T16:22:48.169Z,26.02
2018-08-13T16:25:17.636Z,26.05
2018-08-13T16:27:47.274Z,26.08
2018-08-13T16:30:24.508Z,25.70
2018-08-13T16:32:53.463Z,25.72
2018-08-13T16:35:23.567Z,25.43
2018-08-13T16:37:52.515Z,25.26
2018-08-13T16:40:21.695Z,25.22
2018-08-13T16:42:51.164Z,25.24
2018-08-13T16:45:21.149Z,25.10
2018-08-13T16:47:50.739Z,24.92
2018-08-13T16:50:21.769Z,25.01
2018-08-13T16:52:51.114Z,25.13
2018-08-13T16:55:20.236Z,25.09
2018-08-13T16:57:49.155Z,25.11
2018-08-13T17:00:20.380Z,25.06
2018-08-13T17:02:49.549Z,25.07
2018-08-13T17:05:18.413Z,24.82
2018-08-13T17:07:47.370Z,24.68
2018-08-13T17:10:18.727Z,24.64
2018-08-13T17:12:48.969Z,24.74
2018-08-13T17:15:18.189Z,24.69
2018-08-13T17:17:49.059Z,24.73
2018-08-13T17:20:20.242Z,24.71
2018-08-13T17:22:49.164Z,24.60
2018-08-13T17:25:18.049Z,24.70
2018-08-13T17:27:47.050Z,24.65
2018-08-13T17:30:20.176Z,24.66
2018-08-13T17:32:50.620Z,24.56
2018-08-13T17:35:21.415Z,24.14
2018-08-13T17:37:50.841Z,22.91
2018-08-13T17:40:21.387Z,22.50
2018-08-13T17:42:50.801Z,21.86
2018-08-13T17:45:19.682Z,21.99
2018-08-13T17:47:48.763Z,21.88
2018-08-13T17:50:21.365Z,21.76
2018-08-13T17:52:50.465Z,21.88
2018-08-13T17:55:19.747Z,22.14
2018-08-13T17:57:48.691Z,22.32
2018-08-13T18:12:41.374Z,22.59
2018-08-13T18:15:13.944Z,22.46
2018-08-13T18:17:43.539Z,22.53
2018-08-13T18:20:12.760Z,22.59
2018-08-13T18:22:41.812Z,22.34
2018-08-13T18:25:12.107Z,22.58
2018-08-13T18:27:42.347Z,22.34
2018-08-13T18:30:17.957Z,22.61
2018-08-13T18:32:46.902Z,22.55
2018-08-13T18:35:16.034Z,22.46
2018-08-13T18:37:45.106Z,22.49
2018-08-13T18:40:17.573Z,22.43
2018-08-13T18:42:46.831Z,22.46
2018-08-13T18:45:15.844Z,22.42
2018-08-13T18:47:44.907Z,22.39
2018-08-13T18:50:16.711Z,22.29
2018-08-13T18:52:46.217Z,22.40
2018-08-13T18:55:20.336Z,22.51
2018-08-13T18:57:49.573Z,22.49
2018-08-13T19:00:22.208Z,22.11
2018-08-13T19:02:51.237Z,22.50
2018-08-13T19:05:20.824Z,22.25
2018-08-13T19:07:50.338Z,22.22
2018-08-13T19:10:20.101Z,22.32
2018-08-13T19:12:49.066Z,22.06
2018-08-13T19:15:20.957Z,21.99
2018-08-13T19:17:50.434Z,22.23
2018-08-13T19:23:25.374Z,22.15
2018-08-13T19:25:54.327Z,22.10
2018-08-13T19:28:23.178Z,22.08
2018-08-13T19:30:52.374Z,22.07
2018-08-13T19:33:21.373Z,22.16
2018-08-13T19:35:50.252Z,22.11
2018-08-13T19:38:19.214Z,22.04
2018-08-13T19:40:48.736Z,22.00
2018-08-13T19:43:18.670Z,22.02
2018-08-13T19:46:00.905Z,21.80
2018-08-13T19:48:33.848Z,21.85
2018-08-13T19:51:05.816Z,22.12
2018-08-13T19:53:34.817Z,21.90
2018-08-13T19:56:03.691Z,21.92
2018-08-13T19:58:32.661Z,22.08
2018-08-13T20:01:03.264Z,21.89
2018-08-13T20:03:32.286Z,22.00
2018-08-13T20:06:09.247Z,21.85
2018-08-13T20:12:28.553Z,21.96
2018-08-13T20:15:13.041Z,21.60
2018-08-13T20:18:13.394Z,21.54
2018-08-13T20:20:42.869Z,21.56
2018-08-13T20:23:12.277Z,21.50
2018-08-13T20:25:49.843Z,21.53
2018-08-13T20:28:19.244Z,21.53
2018-08-13T20:30:52.333Z,21.58
2018-08-13T20:33:23.071Z,21.53
2018-08-13T20:35:52.320Z,21.66
2018-08-13T20:38:21.305Z,21.55
2018-08-13T20:40:50.343Z,21.32
2018-08-13T20:43:19.636Z,21.40
2018-08-13T20:45:49.276Z,21.36
2018-08-13T20:48:18.309Z,21.34
2018-08-13T20:50:48.366Z,21.39
2018-08-13T20:53:17.348Z,21.25
2018-08-13T20:55:46.305Z,21.30
2018-08-13T20:58:15.244Z,21.22
2018-08-13T21:00:44.373Z,21.27
2018-08-13T21:03:13.315Z,21.23
2018-08-13T21:05:42.358Z,21.20
2018-08-13T21:08:11.508Z,21.16
2018-08-13T21:10:40.753Z,20.97
2018-08-13T21:13:09.654Z,21.01
2018-08-13T21:15:38.606Z,20.84
2018-08-13T21:18:07.506Z,20.98
2018-08-13T21:20:36.401Z,21.04
2018-08-13T21:23:05.441Z,20.89
2018-08-13T21:25:34.364Z,20.80
2018-08-13T21:28:03.315Z,20.76
2018-08-13T21:30:32.370Z,20.72
2018-08-13T21:33:01.266Z,20.62
2018-08-13T21:35:30.230Z,20.64
2018-08-13T21:37:59.460Z,20.68
2018-08-13T21:40:28.467Z,20.51
2018-08-13T21:42:57.447Z,20.65
2018-08-13T21:45:26.308Z,20.64
2018-08-13T21:47:55.245Z,20.49
2018-08-13T21:50:24.731Z,20.42
2018-08-13T21:52:53.709Z,20.32
2018-08-13T21:55:22.706Z,20.32
2018-08-13T21:57:51.667Z,20.46
2018-08-13T22:01:34.354Z,20.48
2018-08-13T22:04:03.329Z,20.59
2018-08-13T22:06:32.367Z,20.42
2018-08-13T22:09:01.347Z,20.29
2018-08-13T22:11:30.606Z,20.23
2018-08-13T22:13:59.775Z,20.23
2018-08-13T22:16:28.810Z,20.31
2018-08-13T22:18:57.750Z,20.18
2018-08-13T22:21:26.773Z,20.32
2018-08-13T22:24:08.492Z,20.29
2018-08-13T22:26:38.821Z,20.09
2018-08-13T22:29:07.796Z,20.23
2018-08-13T22:31:41.473Z,20.19
2018-08-13T22:34:16.768Z,20.06
2018-08-13T22:36:48.169Z,19.89
2018-08-13T22:39:17.541Z,20.03
2018-08-13T22:41:46.660Z,20.01
2018-08-13T22:44:15.635Z,20.02
2018-08-13T22:46:44.710Z,19.89
2018-08-13T22:49:13.677Z,20.01
2018-08-13T22:51:42.676Z,19.90
2018-08-13T22:54:11.649Z,19.88
2018-08-13T22:56:40.612Z,19.73
2018-08-13T22:59:09.713Z,19.71
2018-08-13T23:01:38.658Z,19.87
2018-08-13T23:04:07.608Z,19.57
2018-08-13T23:06:36.629Z,19.61
2018-08-13T23:09:08.550Z,19.64
2018-08-13T23:11:37.738Z,19.37
2018-08-13T23:14:06.707Z,19.34
2018-08-13T23:16:35.670Z,19.57
2018-08-13T23:19:04.753Z,19.27
2018-08-13T23:21:33.703Z,19.30
2018-08-13T23:24:02.643Z,19.52
2018-08-13T23:26:31.659Z,19.19
2018-08-13T23:29:00.684Z,19.37
2018-08-13T23:31:29.655Z,19.31
2018-08-13T23:33:58.721Z,19.13
2018-08-13T23:36:27.660Z,19.20
2018-08-13T23:38:56.647Z,19.45
2018-08-13T23:41:26.017Z,19.32
2018-08-13T23:43:55.010Z,19.51
2018-08-13T23:46:23.944Z,19.37
2018-08-13T23:48:52.998Z,19.40
2018-08-13T23:51:21.969Z,19.18
2018-08-13T23:53:50.966Z,19.04
2018-08-13T23:56:20.129Z,19.22
2018-08-13T23:58:49.059Z,19.15
